Time;durP1;ratioP1;P1;durP2;ratioP2;P2;SDS_P1;SDS_P2;PMS_P1;PMS_P2;Temp;Humidity;BMP_temperature;BMP_pressure;BME280_temperature;BME280_humidity;BME280_pressure;Samples;Min_cycle;Max_cycle;Signal;HPM_P1;HPM_P2
2023/04/23 05:34:06;;;;;;;10.18;8.55;;;;;;;;;;4941746;23;20126;-83
2023/04/23 05:36:32;;;;;;;8.65;7.15;;;;;;;;;;4936444;29;20119;-82
2023/04/23 05:38:57;;;;;;;10.20;8.45;;;;;;;;;;4936429;29;20031;-82
2023/04/23 05:41:23;;;;;;;11.65;8.40;;;;;;;;;;4936430;29;20039;-83
2023/04/23 05:43:48;;;;;;;8.90;7.65;;;;;;;;;;4936763;29;20098;-83
2023/04/23 05:46:13;;;;;;;9.32;8.27;;;;;;;;;;4919668;29;20039;-81
2023/04/23 05:48:39;;;;;;;10.85;8.27;;;;;;;;;;4936337;29;20435;-83
2023/04/23 05:51:04;;;;;;;10.35;8.63;;;;;;;;;;4923110;29;20034;-83
2023/04/23 05:53:30;;;;;;;12.18;9.60;;;;;;;;;;4917482;29;20119;-83
2023/04/23 05:55:56;;;;;;;11.02;9.23;;;;;;;;;;4917512;29;20028;-83
2023/04/23 05:58:22;;;;;;;11.48;9.90;;;;;;;;;;4917356;29;20509;-84
2023/04/23 06:00:49;;;;;;;11.80;9.90;;;;;;;;;;4917350;29;20028;-84
2023/04/23 06:03:14;;;;;;;10.55;9.00;;;;;;;;;;4917248;29;20456;-85
2023/04/23 06:05:42;;;;;;;12.55;9.60;;;;;;;;;;4917498;29;20024;-84
2023/04/23 06:08:07;;;;;;;13.07;10.13;;;;;;;;;;4929977;29;20028;-84
2023/04/23 06:10:32;;;;;;;11.05;9.60;;;;;;;;;;4919068;29;20114;-84
2023/04/23 06:12:58;;;;;;;15.88;11.95;;;;;;;;;;4936459;29;20023;-83
2023/04/23 06:15:25;;;;;;;14.00;11.45;;;;;;;;;;4935597;29;20036;-84
2023/04/23 06:17:51;;;;;;;14.15;10.88;;;;;;;;;;4881257;29;20472;-83
2023/04/23 06:20:17;;;;;;;15.07;11.98;;;;;;;;;;4898361;29;20032;-84
2023/04/23 06:22:44;;;;;;;14.00;11.57;;;;;;;;;;4912962;29;20039;-85
2023/04/23 08:41:56;;;;;;;15.47;12.03;;;;;;;;;;4915213;29;20048;-80
2023/04/23 08:44:24;;;;;;;18.38;14.75;;;;;;;;;;4918735;29;20083;-81
2023/04/23 08:46:52;;;;;;;16.83;14.25;;;;;;;;;;4917466;29;20024;-82
2023/04/23 08:49:18;;;;;;;15.43;11.85;;;;;;;;;;4898511;29;20029;-81
2023/04/23 08:51:54;;;;;;;17.48;14.25;;;;;;;;;;4899688;29;20112;-85
2023/04/23 08:54:32;;;;;;;19.90;15.10;;;;;;;;;;4898414;29;20063;-80
2023/04/23 08:56:58;;;;;;;21.67;16.77;;;;;;;;;;4908703;29;20084;-80
2023/04/23 08:59:25;;;;;;;24.23;17.30;;;;;;;;;;4907662;29;20028;-78
2023/04/23 09:01:52;;;;;;;40.22;17.58;;;;;;;;;;4899903;29;20037;-81
2023/04/23 09:04:19;;;;;;;20.70;15.38;;;;;;;;;;4899592;29;20107;-77
2023/04/23 09:06:45;;;;;;;16.92;14.73;;;;;;;;;;4899696;29;20118;-82
2023/04/23 09:09:14;;;;;;;18.98;15.55;;;;;;;;;;4907242;29;20472;-78
2023/04/23 09:11:40;;;;;;;17.65;15.38;;;;;;;;;;4905096;29;20116;-79
2023/04/23 09:14:07;;;;;;;17.30;13.80;;;;;;;;;;4901514;29;20472;-77
2023/04/23 09:16:32;;;;;;;17.83;13.88;;;;;;;;;;4899205;29;20033;-78
2023/04/23 09:18:58;;;;;;;14.90;12.38;;;;;;;;;;4899478;29;20036;-78
2023/04/23 09:21:23;;;;;;;13.82;11.00;;;;;;;;;;4898770;29;20463;-78
2023/04/23 09:23:52;;;;;;;15.23;10.95;;;;;;;;;;4899046;29;20186;-77
2023/04/23 09:26:22;;;;;;;14.43;11.77;;;;;;;;;;4898535;29;20044;-77
2023/04/23 09:28:50;;;;;;;19.75;15.73;;;;;;;;;;4898759;29;20088;-77
2023/04/23 09:31:22;;;;;;;15.23;11.27;;;;;;;;;;4897502;29;20436;-77
2023/04/23 09:33:52;;;;;;;14.00;11.63;;;;;;;;;;4899084;29;20025;-77
2023/04/23 09:36:22;;;;;;;18.67;13.88;;;;;;;;;;4898105;29;20492;-79
2023/04/23 09:38:49;;;;;;;18.70;15.32;;;;;;;;;;4898606;29;20020;-75
2023/04/23 09:41:26;;;;;;;21.00;15.90;;;;;;;;;;4904268;29;20479;-79
2023/04/23 09:43:53;;;;;;;20.33;15.60;;;;;;;;;;4912723;29;20033;-78
2023/04/23 09:46:34;;;;;;;21.00;17.73;;;;;;;;;;4898752;29;20024;-80
2023/04/23 09:49:02;;;;;;;19.67;16.75;;;;;;;;;;4898382;29;20032;-78
2023/04/23 09:51:29;;;;;;;20.63;17.23;;;;;;;;;;4901155;29;20063;-76
2023/04/23 09:53:55;;;;;;;22.48;17.55;;;;;;;;;;4917444;29;20032;-76
2023/04/23 09:56:21;;;;;;;20.65;17.10;;;;;;;;;;4907527;29;20032;-80
2023/04/23 09:58:46;;;;;;;24.38;19.20;;;;;;;;;;4917266;29;20039;-82
2023/04/23 10:01:14;;;;;;;17.88;14.48;;;;;;;;;;4900274;29;20028;-77
2023/04/23 10:03:43;;;;;;;28.27;20.33;;;;;;;;;;4917089;29;20043;-80
2023/04/23 10:06:17;;;;;;;20.23;15.65;;;;;;;;;;4917466;29;20498;-76
2023/04/23 10:08:43;;;;;;;20.33;15.50;;;;;;;;;;4912542;29;20412;-76
2023/04/23 10:11:09;;;;;;;21.65;17.23;;;;;;;;;;4915098;29;20032;-78
2023/04/23 10:13:35;;;;;;;19.98;15.20;;;;;;;;;;4917789;29;20028;-82
2023/04/23 10:16:03;;;;;;;21.40;16.73;;;;;;;;;;4924947;29;20448;-77
2023/04/23 10:18:30;;;;;;;24.23;19.58;;;;;;;;;;4917233;29;20044;-79
2023/04/23 10:20:57;;;;;;;22.63;17.48;;;;;;;;;;4900629;29;20032;-77
2023/04/23 10:23:23;;;;;;;19.15;15.77;;;;;;;;;;4918802;29;20028;-78
2023/04/23 10:25:51;;;;;;;17.40;13.98;;;;;;;;;;4921447;29;20028;-79
2023/04/23 10:28:25;;;;;;;18.25;14.73;;;;;;;;;;4921067;29;20035;-80
2023/04/23 10:30:53;;;;;;;16.70;13.93;;;;;;;;;;4921019;29;20024;-77
2023/04/23 10:33:19;;;;;;;22.75;18.52;;;;;;;;;;4921134;29;20111;-78
2023/04/23 10:35:47;;;;;;;19.25;16.42;;;;;;;;;;4921258;29;20412;-79
2023/04/23 10:38:14;;;;;;;19.95;15.63;;;;;;;;;;4921132;29;20053;-77
2023/04/23 10:40:44;;;;;;;23.20;17.88;;;;;;;;;;4921031;29;20024;-79
2023/04/23 10:43:09;;;;;;;21.15;17.65;;;;;;;;;;4920853;29;20020;-77
2023/04/23 10:45:35;;;;;;;19.02;16.05;;;;;;;;;;4904040;29;20071;-78
2023/04/23 10:48:00;;;;;;;23.38;18.15;;;;;;;;;;4920538;29;20028;-78
2023/04/23 10:50:34;;;;;;;18.80;15.68;;;;;;;;;;4920864;29;20036;-78
2023/04/23 10:53:01;;;;;;;22.33;19.42;;;;;;;;;;4920698;29;20088;-78
2023/04/23 10:55:29;;;;;;;20.58;16.83;;;;;;;;;;4920770;29;20109;-82
2023/04/23 10:58:01;;;;;;;23.13;18.15;;;;;;;;;;4920577;29;20025;-79
2023/04/23 11:00:29;;;;;;;25.85;21.48;;;;;;;;;;4920922;29;20032;-79
2023/04/23 11:02:55;;;;;;;18.95;16.65;;;;;;;;;;4920713;29;20028;-84
2023/04/23 11:05:22;;;;;;;21.30;18.08;;;;;;;;;;4920540;29;20031;-81
2023/04/23 11:08:07;;;;;;;19.42;17.38;;;;;;;;;;4920394;29;20499;-80
2023/04/23 11:10:49;;;;;;;19.65;15.60;;;;;;;;;;4920561;29;20036;-79
2023/04/23 11:13:23;;;;;;;17.25;15.07;;;;;;;;;;4920617;29;20067;-80
2023/04/23 11:16:12;;;;;;;28.23;23.60;;;;;;;;;;4903409;29;20036;-79
2023/04/23 11:19:07;;;;;;;31.00;25.90;;;;;;;;;;4920146;29;20111;-80
2023/04/23 11:21:55;;;;;;;17.38;12.85;;;;;;;;;;4920162;29;20032;-79
2023/04/23 11:24:27;;;;;;;17.00;14.77;;;;;;;;;;4920295;29;20035;-80
2023/04/23 11:26:55;;;;;;;19.50;17.40;;;;;;;;;;4920153;29;20032;-81
2023/04/23 11:29:23;;;;;;;18.08;15.60;;;;;;;;;;4920329;29;20035;-78
2023/04/23 11:31:49;;;;;;;16.95;15.05;;;;;;;;;;4919828;29;20119;-76
2023/04/23 11:34:16;;;;;;;12.35;11.00;;;;;;;;;;4920105;29;20080;-77
2023/04/23 11:36:41;;;;;;;15.85;12.85;;;;;;;;;;4919977;29;20111;-80
2023/04/23 11:39:09;;;;;;;17.83;15.90;;;;;;;;;;4919979;29;20127;-78
2023/04/23 11:41:35;;;;;;;15.57;13.00;;;;;;;;;;4902500;29;20044;-83
2023/04/23 11:44:01;;;;;;;15.75;12.98;;;;;;;;;;4919611;29;20106;-84
2023/04/23 11:46:28;;;;;;;16.23;13.85;;;;;;;;;;4920256;29;20020;-82
2023/04/23 11:48:53;;;;;;;17.17;14.50;;;;;;;;;;4919671;29;20039;-85
2023/04/23 11:51:25;;;;;;;21.92;19.13;;;;;;;;;;4918732;29;20032;-87
2023/04/23 11:53:50;;;;;;;26.35;23.40;;;;;;;;;;4902597;29;20039;-86
2023/04/23 11:56:16;;;;;;;18.27;16.33;;;;;;;;;;4919707;29;20032;-82
2023/04/23 11:58:41;;;;;;;14.88;12.98;;;;;;;;;;4919461;29;20032;-83
2023/04/23 12:01:07;;;;;;;25.58;21.58;;;;;;;;;;4919455;29;20361;-82
2023/04/23 12:03:33;;;;;;;19.58;17.25;;;;;;;;;;4919622;29;20060;-83
2023/04/23 12:05:58;;;;;;;14.55;12.32;;;;;;;;;;4919372;29;20036;-80
2023/04/23 12:08:24;;;;;;;15.50;13.85;;;;;;;;;;4919189;29;20028;-83
2023/04/23 12:10:52;;;;;;;13.40;11.45;;;;;;;;;;4919261;29;20360;-82
2023/04/23 12:13:22;;;;;;;12.05;10.10;;;;;;;;;;4919316;29;20051;-83
2023/04/23 12:15:50;;;;;;;17.00;12.52;;;;;;;;;;4918990;29;20024;-81
2023/04/23 12:18:16;;;;;;;14.18;12.13;;;;;;;;;;4919358;29;20589;-83
2023/04/23 12:20:42;;;;;;;10.50;8.90;;;;;;;;;;4919143;29;20156;-81
2023/04/23 12:23:08;;;;;;;12.15;9.98;;;;;;;;;;4918968;29;20039;-80
2023/04/23 12:25:34;;;;;;;15.15;12.35;;;;;;;;;;4918853;29;20119;-79
2023/04/23 12:28:01;;;;;;;12.02;10.60;;;;;;;;;;4918771;29;20451;-81
2023/04/23 12:30:31;;;;;;;12.20;10.70;;;;;;;;;;4918909;29;20051;-80
2023/04/23 12:33:05;;;;;;;11.88;9.10;;;;;;;;;;4919032;29;20099;-82
2023/04/23 12:35:42;;;;;;;10.73;8.57;;;;;;;;;;4918878;29;20105;-84
2023/04/23 12:38:24;;;;;;;11.38;9.35;;;;;;;;;;4919471;29;20375;-90
2023/04/23 12:40:50;;;;;;;11.30;10.10;;;;;;;;;;4904676;29;20115;-90
2023/04/23 12:43:16;;;;;;;8.88;7.80;;;;;;;;;;4919534;29;20039;-93
2023/04/23 12:45:41;;;;;;;12.27;9.43;;;;;;;;;;4902570;29;20115;-82
2023/04/23 12:48:07;;;;;;;11.23;8.70;;;;;;;;;;4919539;29;20475;-83
2023/04/23 12:50:32;;;;;;;11.20;7.95;;;;;;;;;;4918932;29;20116;-81
2023/04/23 12:52:58;;;;;;;9.43;7.43;;;;;;;;;;4918690;29;20111;-82
2023/04/23 12:55:23;;;;;;;8.00;7.15;;;;;;;;;;4919189;29;20522;-83
2023/04/23 12:57:49;;;;;;;9.20;6.72;;;;;;;;;;4918988;29;20048;-81
2023/04/23 13:00:14;;;;;;;9.63;7.00;;;;;;;;;;4919565;29;20471;-82
2023/04/23 13:02:40;;;;;;;7.32;6.47;;;;;;;;;;4919450;29;20032;-82
2023/04/23 13:05:06;;;;;;;8.65;6.40;;;;;;;;;;4918193;29;20364;-84
2023/04/23 13:07:31;;;;;;;6.95;6.18;;;;;;;;;;4917363;29;20387;-84
2023/04/23 13:09:58;;;;;;;7.57;5.80;;;;;;;;;;4918373;29;20028;-83
2023/04/23 13:12:24;;;;;;;5.88;5.30;;;;;;;;;;4918494;29;20024;-82
2023/04/23 13:14:49;;;;;;;5.97;5.18;;;;;;;;;;4918212;29;20035;-83
2023/04/23 13:17:15;;;;;;;6.10;5.50;;;;;;;;;;4916513;29;20043;-84
2023/04/23 13:19:40;;;;;;;6.07;5.22;;;;;;;;;;4917005;29;20035;-84
2023/04/23 13:22:06;;;;;;;7.68;6.90;;;;;;;;;;4917920;29;20464;-84
2023/04/23 13:24:32;;;;;;;5.85;5.25;;;;;;;;;;4917955;29;20436;-84
2023/04/23 13:26:57;;;;;;;7.20;6.38;;;;;;;;;;4917892;29;20024;-85
2023/04/23 13:29:26;;;;;;;7.97;5.85;;;;;;;;;;4917624;29;20495;-84
2023/04/23 13:31:52;;;;;;;7.95;6.32;;;;;;;;;;4917726;29;20036;-84
2023/04/23 13:34:18;;;;;;;8.07;5.65;;;;;;;;;;4917507;29;20406;-84
2023/04/23 13:36:43;;;;;;;8.23;5.00;;;;;;;;;;4917631;29;20027;-84
2023/04/23 13:39:12;;;;;;;8.23;7.38;;;;;;;;;;4917538;29;20504;-84
2023/04/23 13:41:37;;;;;;;7.90;7.10;;;;;;;;;;4900504;29;20056;-85
2023/04/23 13:44:02;;;;;;;6.65;5.50;;;;;;;;;;4917452;29;20036;-84
2023/04/23 13:46:28;;;;;;;8.82;5.50;;;;;;;;;;4917538;29;20113;-84
2023/04/23 13:48:54;;;;;;;6.70;5.40;;;;;;;;;;4917127;29;20020;-84
2023/04/23 13:51:19;;;;;;;6.47;4.85;;;;;;;;;;4917446;29;20119;-83
2023/04/23 13:53:44;;;;;;;9.23;5.65;;;;;;;;;;4917275;29;20042;-84
2023/04/23 13:56:10;;;;;;;7.70;4.85;;;;;;;;;;4900291;29;20039;-84
2023/04/23 13:58:35;;;;;;;6.68;5.03;;;;;;;;;;4917479;29;20036;-83
2023/04/23 14:01:01;;;;;;;6.30;4.90;;;;;;;;;;4917498;29;20060;-84
2023/04/23 14:03:26;;;;;;;6.95;4.90;;;;;;;;;;4917251;29;20407;-83
2023/04/23 14:05:52;;;;;;;6.20;5.47;;;;;;;;;;4916506;29;20368;-83
2023/04/23 14:08:17;;;;;;;8.20;5.85;;;;;;;;;;4916726;29;20082;-84
2023/04/23 14:10:43;;;;;;;6.00;5.25;;;;;;;;;;4916889;29;20027;-78
2023/04/23 14:13:08;;;;;;;6.32;5.05;;;;;;;;;;4917428;29;20043;-87
2023/04/23 14:15:34;;;;;;;7.55;5.20;;;;;;;;;;4917003;29;20043;-81
2023/04/23 14:18:00;;;;;;;10.57;5.75;;;;;;;;;;4917562;29;20041;-83
2023/04/23 14:20:25;;;;;;;9.40;6.35;;;;;;;;;;4917844;29;20028;-87
2023/04/23 14:22:56;;;;;;;8.40;5.40;;;;;;;;;;4917521;29;20475;-85
2023/04/23 14:25:29;;;;;;;6.80;4.93;;;;;;;;;;4917454;29;20039;-82
2023/04/23 14:28:00;;;;;;;6.75;5.70;;;;;;;;;;4917420;29;20111;-86
2023/04/23 14:30:26;;;;;;;6.63;4.75;;;;;;;;;;4917373;29;20028;-90
2023/04/23 14:32:55;;;;;;;14.90;6.80;;;;;;;;;;4900182;29;20020;-84
2023/04/23 14:35:20;;;;;;;7.30;5.35;;;;;;;;;;4917515;29;20112;-83
2023/04/23 14:37:46;;;;;;;41.20;7.05;;;;;;;;;;4917069;29;20059;-76
2023/04/23 14:40:18;;;;;;;16.55;5.90;;;;;;;;;;4916950;29;20044;-90
2023/04/23 14:42:48;;;;;;;5.63;4.65;;;;;;;;;;4897160;29;20123;-84
2023/04/23 14:45:19;;;;;;;;;;;;;;;;;;4899381;29;20032;-84
2023/04/23 14:47:49;;;;;;;7.68;4.28;;;;;;;;;;4899150;29;20342;-84
2023/04/23 14:50:15;;;;;;;5.47;4.60;;;;;;;;;;4898750;29;20033;-85
2023/04/23 14:52:48;;;;;;;5.43;4.18;;;;;;;;;;4898310;29;20408;-84
2023/04/23 14:55:15;;;;;;;5.03;4.50;;;;;;;;;;4898413;29;20388;-85
2023/04/23 14:57:41;;;;;;;9.13;4.88;;;;;;;;;;4897946;29;20564;-88
2023/04/23 15:00:07;;;;;;;7.55;3.83;;;;;;;;;;4897198;29;20147;-85
2023/04/23 15:02:33;;;;;;;4.90;3.83;;;;;;;;;;4898387;29;20025;-85
2023/04/23 15:04:59;;;;;;;6.15;4.10;;;;;;;;;;4898347;29;20021;-85
2023/04/23 15:07:25;;;;;;;7.25;4.15;;;;;;;;;;4898026;29;20055;-87
2023/04/23 15:09:51;;;;;;;7.70;4.30;;;;;;;;;;4900035;29;20064;-84
2023/04/23 15:12:49;;;;;;;6.40;4.80;;;;;;;;;;4901781;29;20064;-82
2023/04/23 15:15:26;;;;;;;4.97;4.20;;;;;;;;;;4902645;29;20033;-83
2023/04/23 15:17:52;;;;;;;8.52;4.72;;;;;;;;;;4901767;29;20052;-82
2023/04/23 15:20:18;;;;;;;8.27;4.63;;;;;;;;;;4901085;29;20025;-79
2023/04/23 15:22:46;;;;;;;6.78;4.97;;;;;;;;;;4901327;29;20037;-78
2023/04/23 15:25:12;;;;;;;8.27;4.97;;;;;;;;;;4901801;29;20084;-77
2023/04/23 15:27:37;;;;;;;6.43;5.10;;;;;;;;;;4901147;29;20024;-78
2023/04/23 15:30:03;;;;;;;7.88;4.88;;;;;;;;;;4901399;29;20031;-78
2023/04/23 15:32:29;;;;;;;5.53;4.35;;;;;;;;;;4901161;29;20164;-77
2023/04/23 15:34:54;;;;;;;6.32;4.38;;;;;;;;;;4901532;29;20459;-77
2023/04/23 15:37:22;;;;;;;7.60;3.97;;;;;;;;;;4900980;29;20116;-77
2023/04/23 15:39:47;;;;;;;7.32;4.57;;;;;;;;;;4901196;29;20024;-77
2023/04/23 15:42:14;;;;;;;9.82;5.00;;;;;;;;;;4914280;29;20044;-77
2023/04/23 15:44:40;;;;;;;6.30;5.07;;;;;;;;;;4919742;29;20059;-77
2023/04/23 15:47:06;;;;;;;6.60;4.15;;;;;;;;;;4919805;29;20107;-78
2023/04/23 15:49:31;;;;;;;5.53;3.83;;;;;;;;;;4920010;29;20050;-77
2023/04/23 15:51:57;;;;;;;4.68;3.50;;;;;;;;;;4919459;29;20057;-77
2023/04/23 15:54:22;;;;;;;5.13;4.55;;;;;;;;;;4919718;29;20028;-78
2023/04/23 15:56:48;;;;;;;7.60;5.43;;;;;;;;;;4919457;29;20564;-77
2023/04/23 15:59:13;;;;;;;5.47;4.70;;;;;;;;;;4919559;29;20105;-77
2023/04/23 16:01:39;;;;;;;7.93;4.03;;;;;;;;;;4919823;29;20024;-79
2023/04/23 16:04:04;;;;;;;6.05;4.22;;;;;;;;;;4919414;29;20024;-79
2023/04/23 16:06:30;;;;;;;7.03;5.30;;;;;;;;;;4919528;29;20052;-79
2023/04/23 16:08:56;;;;;;;6.25;3.58;;;;;;;;;;4919434;29;20028;-76
2023/04/23 16:11:21;;;;;;;5.35;4.05;;;;;;;;;;4919786;29;20047;-79
2023/04/23 16:13:47;;;;;;;4.28;3.45;;;;;;;;;;4919360;29;20032;-77
2023/04/23 16:16:12;;;;;;;6.80;4.50;;;;;;;;;;4919389;29;20031;-77
2023/04/23 16:18:38;;;;;;;8.13;6.05;;;;;;;;;;4919200;29;20028;-77
2023/04/23 16:21:05;;;;;;;6.43;5.45;;;;;;;;;;4918111;29;20020;-78
2023/04/23 16:23:30;;;;;;;7.07;6.28;;;;;;;;;;4919057;29;20480;-78
2023/04/23 16:25:56;;;;;;;6.65;5.65;;;;;;;;;;4919236;29;20080;-79
2023/04/23 16:28:21;;;;;;;6.90;5.55;;;;;;;;;;4919471;29;20081;-76
2023/04/23 16:30:47;;;;;;;7.28;6.40;;;;;;;;;;4918878;29;20440;-79
2023/04/23 16:33:12;;;;;;;6.57;5.38;;;;;;;;;;4902190;29;20397;-76
2023/04/23 16:35:38;;;;;;;5.70;4.85;;;;;;;;;;4901894;29;20538;-77
2023/04/23 16:38:04;;;;;;;7.45;5.15;;;;;;;;;;4919059;29;20106;-77
2023/04/23 16:40:29;;;;;;;7.80;4.20;;;;;;;;;;4918825;29;20128;-77
2023/04/23 16:42:55;;;;;;;4.93;3.85;;;;;;;;;;4918627;29;20104;-78
2023/04/23 16:45:21;;;;;;;7.00;4.80;;;;;;;;;;4918809;29;20064;-78
2023/04/23 16:47:51;;;;;;;6.22;4.38;;;;;;;;;;4918731;29;20040;-78
2023/04/23 16:50:16;;;;;;;6.10;4.07;;;;;;;;;;4918300;29;20032;-77
2023/04/23 16:52:42;;;;;;;6.45;4.32;;;;;;;;;;4918474;29;20483;-78
2023/04/23 16:55:08;;;;;;;5.38;4.07;;;;;;;;;;4918501;29;20048;-77
2023/04/23 16:57:35;;;;;;;4.00;3.63;;;;;;;;;;4918574;29;20039;-77
2023/04/23 17:00:01;;;;;;;7.30;4.95;;;;;;;;;;4918650;29;20032;-78
2023/04/23 17:02:26;;;;;;;5.10;4.53;;;;;;;;;;4918511;29;20115;-78
2023/04/23 17:04:51;;;;;;;5.00;4.35;;;;;;;;;;4918516;29;20357;-77
2023/04/23 17:07:17;;;;;;;4.47;3.83;;;;;;;;;;4918422;29;20087;-78
2023/04/23 17:09:42;;;;;;;4.90;4.32;;;;;;;;;;4918597;29;20036;-77
2023/04/23 17:12:08;;;;;;;5.80;4.05;;;;;;;;;;4918427;29;20048;-77
2023/04/23 17:14:33;;;;;;;5.22;4.03;;;;;;;;;;4918394;29;20028;-77
2023/04/23 17:16:59;;;;;;;6.10;4.53;;;;;;;;;;4918300;29;20082;-77
2023/04/23 17:19:24;;;;;;;4.95;4.45;;;;;;;;;;4918072;29;20031;-77
2023/04/23 17:21:50;;;;;;;5.13;4.35;;;;;;;;;;4918092;29;20040;-77
2023/04/23 17:24:15;;;;;;;5.78;4.85;;;;;;;;;;4918025;29;20028;-81
2023/04/23 17:26:40;;;;;;;6.38;4.40;;;;;;;;;;4917073;29;20483;-77
2023/04/23 17:29:06;;;;;;;4.63;3.85;;;;;;;;;;4917887;29;20024;-78
2023/04/23 17:31:31;;;;;;;6.63;4.93;;;;;;;;;;4917794;29;20073;-79
2023/04/23 17:33:57;;;;;;;5.22;4.57;;;;;;;;;;4917716;29;20488;-81
2023/04/23 17:36:22;;;;;;;5.40;4.80;;;;;;;;;;4918141;29;20028;-78
2023/04/23 17:38:48;;;;;;;6.10;4.00;;;;;;;;;;4918007;29;20365;-81
2023/04/23 17:41:13;;;;;;;5.15;3.90;;;;;;;;;;4917788;29;20538;-80
2023/04/23 17:43:39;;;;;;;5.03;3.90;;;;;;;;;;4917953;29;20048;-79
2023/04/23 17:46:04;;;;;;;4.28;3.72;;;;;;;;;;4917743;29;20066;-80
2023/04/23 17:48:30;;;;;;;5.63;4.35;;;;;;;;;;4917610;29;20484;-81
2023/04/23 17:50:55;;;;;;;4.85;4.03;;;;;;;;;;4900935;29;20055;-80
2023/04/23 17:53:21;;;;;;;3.75;3.17;;;;;;;;;;4916928;29;20028;-80
2023/04/23 17:55:46;;;;;;;4.13;3.55;;;;;;;;;;4917278;29;20398;-77
2023/04/23 17:58:12;;;;;;;3.70;3.40;;;;;;;;;;4916303;29;20024;-81
2023/04/23 18:00:40;;;;;;;4.68;4.13;;;;;;;;;;4916937;29;20062;-82
2023/04/23 18:03:08;;;;;;;5.20;3.97;;;;;;;;;;4917302;29;20476;-78
2023/04/23 18:05:34;;;;;;;4.00;3.63;;;;;;;;;;4917743;29;20494;-82
2023/04/23 18:07:59;;;;;;;4.07;3.67;;;;;;;;;;4900201;29;20039;-80
2023/04/23 18:10:25;;;;;;;3.85;3.55;;;;;;;;;;4917064;29;20024;-80
2023/04/23 18:12:51;;;;;;;4.30;3.90;;;;;;;;;;4917544;29;20028;-79
2023/04/23 18:15:16;;;;;;;6.28;4.28;;;;;;;;;;4917233;29;20030;-83
2023/04/23 18:17:42;;;;;;;4.88;4.40;;;;;;;;;;4916949;29;20032;-82
2023/04/23 18:20:10;;;;;;;6.20;4.63;;;;;;;;;;4917206;29;20024;-83
2023/04/23 18:22:37;;;;;;;6.93;4.97;;;;;;;;;;4917019;29;20476;-82
2023/04/23 18:25:03;;;;;;;8.00;5.50;;;;;;;;;;4917240;29;20036;-83
2023/04/23 18:27:29;;;;;;;6.10;5.47;;;;;;;;;;4917036;29;20024;-83
2023/04/23 18:29:56;;;;;;;7.32;6.38;;;;;;;;;;4916567;29;20051;-79
2023/04/23 18:32:24;;;;;;;5.50;4.80;;;;;;;;;;4916596;29;20028;-80
2023/04/23 18:34:50;;;;;;;5.43;4.93;;;;;;;;;;4916422;29;20040;-83
2023/04/23 18:37:31;;;;;;;7.85;4.70;;;;;;;;;;4916709;29;20028;-78
2023/04/23 18:39:57;;;;;;;6.28;5.28;;;;;;;;;;4917294;29;20052;-82
2023/04/23 18:42:22;;;;;;;4.80;4.40;;;;;;;;;;4896842;29;20080;-80
2023/04/23 18:44:48;;;;;;;5.53;5.03;;;;;;;;;;4900085;29;20084;-78
2023/04/23 18:47:17;;;;;;;6.10;5.47;;;;;;;;;;4901748;29;20031;-82
2023/04/23 18:49:53;;;;;;;5.18;4.55;;;;;;;;;;4902048;29;20396;-82
2023/04/23 18:52:19;;;;;;;5.55;5.00;;;;;;;;;;4901909;29;20032;-80
2023/04/23 18:54:44;;;;;;;4.88;4.40;;;;;;;;;;4901796;29;20029;-78
2023/04/23 18:57:09;;;;;;;4.90;4.40;;;;;;;;;;4901635;29;20028;-80
2023/04/23 18:59:36;;;;;;;5.82;5.22;;;;;;;;;;4897572;29;20047;-81
2023/04/23 19:02:04;;;;;;;6.47;4.80;;;;;;;;;;4896468;29;20033;-78
2023/04/23 19:04:33;;;;;;;5.30;4.80;;;;;;;;;;4901598;29;20032;-79
2023/04/23 19:06:59;;;;;;;4.93;4.50;;;;;;;;;;4900097;29;20036;-74
2023/04/23 19:09:26;;;;;;;6.07;4.70;;;;;;;;;;4901572;29;20028;-75
2023/04/23 19:11:52;;;;;;;5.97;4.68;;;;;;;;;;4900102;29;20040;-75
2023/04/23 19:14:19;;;;;;;5.22;4.50;;;;;;;;;;4901326;29;20035;-80
2023/04/23 19:16:46;;;;;;;6.75;5.53;;;;;;;;;;4900212;29;20033;-82
2023/04/23 19:19:12;;;;;;;9.23;6.28;;;;;;;;;;4895557;29;20108;-82
2023/04/23 19:21:38;;;;;;;8.57;5.53;;;;;;;;;;4892042;29;20093;-82
2023/04/23 19:24:03;;;;;;;8.32;6.43;;;;;;;;;;4900536;29;20029;-82
2023/04/23 19:26:30;;;;;;;10.27;6.30;;;;;;;;;;4901268;29;20028;-83
2023/04/23 19:28:56;;;;;;;7.30;6.30;;;;;;;;;;4901348;29;20039;-75
2023/04/23 19:31:22;;;;;;;10.80;9.32;;;;;;;;;;4899703;29;20387;-83
2023/04/23 19:33:48;;;;;;;10.07;8.23;;;;;;;;;;4901041;29;20077;-82
2023/04/23 19:36:13;;;;;;;8.77;7.22;;;;;;;;;;4900282;29;20060;-82
2023/04/23 19:38:42;;;;;;;11.85;9.40;;;;;;;;;;4901381;29;20067;-83
2023/04/23 19:41:07;;;;;;;10.30;8.65;;;;;;;;;;4896533;29;20045;-81
2023/04/23 19:43:34;;;;;;;9.23;8.20;;;;;;;;;;4891709;29;20037;-81
2023/04/23 19:46:00;;;;;;;12.65;10.20;;;;;;;;;;4899760;29;20097;-82
2023/04/23 19:48:27;;;;;;;12.35;9.88;;;;;;;;;;4900929;29;20036;-82
2023/04/23 19:50:54;;;;;;;11.95;9.63;;;;;;;;;;4899431;29;20067;-82
2023/04/23 19:53:20;;;;;;;13.52;10.30;;;;;;;;;;4901413;29;20025;-82
2023/04/23 19:55:46;;;;;;;15.48;10.15;;;;;;;;;;4899663;29;20075;-83
2023/04/23 19:58:14;;;;;;;11.43;10.23;;;;;;;;;;4900818;29;20028;-82
2023/04/23 20:00:41;;;;;;;10.70;9.15;;;;;;;;;;4900786;29;20040;-81
2023/04/23 20:03:07;;;;;;;10.35;8.48;;;;;;;;;;4899531;29;20036;-82
2023/04/23 20:05:34;;;;;;;12.10;8.95;;;;;;;;;;4900649;29;20020;-82
2023/04/23 20:08:02;;;;;;;11.90;8.77;;;;;;;;;;4890632;29;20033;-78
2023/04/23 20:10:29;;;;;;;9.57;8.48;;;;;;;;;;4898953;29;20084;-75
2023/04/23 20:12:58;;;;;;;11.82;9.93;;;;;;;;;;4900471;29;20484;-78
2023/04/23 20:15:25;;;;;;;12.80;10.80;;;;;;;;;;4900029;29;20020;-75
2023/04/23 20:17:51;;;;;;;11.95;9.73;;;;;;;;;;4900053;29;20045;-76
2023/04/23 20:20:17;;;;;;;12.68;10.70;;;;;;;;;;4898742;29;20084;-76
2023/04/23 20:22:43;;;;;;;11.85;9.57;;;;;;;;;;4898899;29;20036;-74
2023/04/23 20:25:09;;;;;;;11.73;10.10;;;;;;;;;;4899983;29;20024;-81
2023/04/23 20:27:35;;;;;;;13.57;9.77;;;;;;;;;;4899803;29;20388;-75
2023/04/23 20:30:03;;;;;;;11.55;8.73;;;;;;;;;;4900513;29;20091;-76
2023/04/23 20:32:28;;;;;;;11.70;8.75;;;;;;;;;;4898320;29;20028;-76
2023/04/23 20:34:55;;;;;;;10.80;7.90;;;;;;;;;;4898562;29;20035;-75
2023/04/23 20:37:21;;;;;;;9.30;8.30;;;;;;;;;;4898572;29;20032;-82
2023/04/23 20:39:48;;;;;;;12.07;9.70;;;;;;;;;;4884076;29;20033;-76
2023/04/23 20:42:14;;;;;;;9.60;8.63;;;;;;;;;;4909281;29;20139;-77
2023/04/23 20:44:41;;;;;;;10.98;9.20;;;;;;;;;;4918630;29;20108;-80
2023/04/23 20:47:09;;;;;;;11.20;8.82;;;;;;;;;;4918311;29;20388;-82
2023/04/23 20:49:34;;;;;;;9.40;7.95;;;;;;;;;;4918496;29;20472;-76
2023/04/23 20:52:00;;;;;;;10.63;8.35;;;;;;;;;;4918253;29;20033;-80
2023/04/23 20:54:25;;;;;;;10.23;8.70;;;;;;;;;;4918321;29;20376;-82
2023/04/23 20:56:52;;;;;;;13.32;9.45;;;;;;;;;;4918386;29;20028;-81
2023/04/23 20:59:20;;;;;;;12.13;9.23;;;;;;;;;;4918187;29;20017;-80
2023/04/23 21:01:46;;;;;;;9.02;7.70;;;;;;;;;;4918212;29;20384;-82
2023/04/23 21:04:11;;;;;;;11.50;9.32;;;;;;;;;;4918279;29;20038;-84
2023/04/23 21:06:37;;;;;;;9.60;8.60;;;;;;;;;;4917459;29;20027;-81
2023/04/23 21:09:03;;;;;;;10.32;8.05;;;;;;;;;;4918025;29;20024;-78
2023/04/23 21:11:29;;;;;;;10.13;9.10;;;;;;;;;;4917850;29;20392;-82
2023/04/23 21:13:55;;;;;;;10.00;8.13;;;;;;;;;;4918213;29;20088;-82
2023/04/23 21:16:20;;;;;;;10.45;8.15;;;;;;;;;;4918250;29;20056;-81
2023/04/23 21:18:46;;;;;;;13.15;8.77;;;;;;;;;;4917735;29;20024;-82
2023/04/23 21:21:11;;;;;;;14.10;9.45;;;;;;;;;;4917456;29;20103;-81
2023/04/23 21:23:37;;;;;;;15.43;9.13;;;;;;;;;;4917892;29;20119;-81
2023/04/23 21:26:02;;;;;;;15.63;9.38;;;;;;;;;;4917871;29;20032;-74
2023/04/23 21:28:28;;;;;;;17.27;11.88;;;;;;;;;;4917542;29;20029;-79
2023/04/23 21:30:55;;;;;;;10.95;9.05;;;;;;;;;;4917825;29;20028;-82
2023/04/23 21:33:22;;;;;;;12.32;10.38;;;;;;;;;;4917728;29;20042;-83
2023/04/23 21:35:49;;;;;;;11.35;9.50;;;;;;;;;;4917354;29;20066;-83
2023/04/23 21:38:16;;;;;;;10.73;8.75;;;;;;;;;;4917619;29;20028;-80
2023/04/23 21:40:42;;;;;;;12.70;9.55;;;;;;;;;;4917323;29;20043;-84
2023/04/23 21:43:08;;;;;;;11.05;8.02;;;;;;;;;;4917690;29;20032;-80
2023/04/23 21:45:33;;;;;;;10.18;8.60;;;;;;;;;;4917318;29;20395;-81
2023/04/23 21:48:00;;;;;;;10.90;9.35;;;;;;;;;;4917203;29;20043;-85
